sensor_id;sensor_type;location;lat;lon;timestamp;temperature;humidity
19561;DHT22;9927;47.792;10.616;2022-12-07T04:01:55;3.80;99.90
19561;DHT22;9927;47.792;10.616;2022-12-07T04:04:24;3.60;99.90
19561;DHT22;9927;47.792;10.616;2022-12-07T04:06:52;3.70;99.90
19561;DHT22;9927;47.792;10.616;2022-12-07T04:09:19;3.70;99.90
19561;DHT22;9927;47.792;10.616;2022-12-07T04:11:47;3.50;99.90
19561;DHT22;9927;47.792;10.616;2022-12-07T04:14:14;3.40;99.90
19561;DHT22;9927;47.792;10.616;2022-12-07T04:16:50;3.40;99.90
19561;DHT22;9927;47.792;10.616;2022-12-07T04:19:20;3.30;99.90
19561;DHT22;9927;47.792;10.616;2022-12-07T04:21:47;3.40;99.90
19561;DHT22;9927;47.792;10.616;2022-12-07T04:24:15;3.40;99.90
19561;DHT22;9927;47.792;10.616;2022-12-07T04:26:45;3.40;99.90
19561;DHT22;9927;47.792;10.616;2022-12-07T04:29:13;3.20;99.90
19561;DHT22;9927;47.792;10.616;2022-12-07T04:31:41;3.40;99.90
19561;DHT22;9927;47.792;10.616;2022-12-07T04:34:08;3.70;99.90
19561;DHT22;9927;47.792;10.616;2022-12-07T04:36:36;3.70;99.90
19561;DHT22;9927;47.792;10.616;2022-12-07T04:39:05;3.80;99.90
19561;DHT22;9927;47.792;10.616;2022-12-07T04:41:33;3.80;99.90
19561;DHT22;9927;47.792;10.616;2022-12-07T04:44:02;3.90;99.90
19561;DHT22;9927;47.792;10.616;2022-12-07T04:46:31;3.90;99.90
19561;DHT22;9927;47.792;10.616;2022-12-07T04:48:59;3.80;99.90
19561;DHT22;9927;47.792;10.616;2022-12-07T04:51:28;3.80;99.90
19561;DHT22;9927;47.792;10.616;2022-12-07T04:53:56;3.60;99.90
19561;DHT22;9927;47.792;10.616;2022-12-07T04:56:24;3.50;99.90
19561;DHT22;9927;47.792;10.616;2022-12-07T04:58:53;3.40;99.90
19561;DHT22;9927;47.792;10.616;2022-12-07T05:01:22;3.60;99.90
19561;DHT22;9927;47.792;10.616;2022-12-07T05:03:50;3.50;99.90
19561;DHT22;9927;47.792;10.616;2022-12-07T05:06:17;3.50;99.90
19561;DHT22;9927;47.792;10.616;2022-12-07T05:08:44;3.50;99.90
19561;DHT22;9927;47.792;10.616;2022-12-07T05:11:13;3.30;99.90
19561;DHT22;9927;47.792;10.616;2022-12-07T05:13:59;3.20;99.90
19561;DHT22;9927;47.792;10.616;2022-12-07T05:16:27;3.20;99.90
19561;DHT22;9927;47.792;10.616;2022-12-07T05:18:54;3.10;99.90
19561;DHT22;9927;47.792;10.616;2022-12-07T05:21:22;3.00;99.90
19561;DHT22;9927;47.792;10.616;2022-12-07T05:23:50;3.10;99.90
19561;DHT22;9927;47.792;10.616;2022-12-07T05:26:18;3.20;99.90
19561;DHT22;9927;47.792;10.616;2022-12-07T05:28:50;3.20;99.90
19561;DHT22;9927;47.792;10.616;2022-12-07T05:31:17;3.30;99.90
19561;DHT22;9927;47.792;10.616;2022-12-07T05:33:45;3.30;99.90
19561;DHT22;9927;47.792;10.616;2022-12-07T05:36:12;3.30;99.90
19561;DHT22;9927;47.792;10.616;2022-12-07T05:38:40;3.40;99.90
19561;DHT22;9927;47.792;10.616;2022-12-07T05:41:08;3.50;99.90
19561;DHT22;9927;47.792;10.616;2022-12-07T05:43:56;3.60;99.90
19561;DHT22;9927;47.792;10.616;2022-12-07T05:46:23;3.60;99.90
19561;DHT22;9927;47.792;10.616;2022-12-07T05:48:50;3.60;99.90
19561;DHT22;9927;47.792;10.616;2022-12-07T05:51:18;3.70;99.90
19561;DHT22;9927;47.792;10.616;2022-12-07T05:53:45;3.50;99.90
19561;DHT22;9927;47.792;10.616;2022-12-07T05:56:13;3.50;99.90
19561;DHT22;9927;47.792;10.616;2022-12-07T05:58:40;3.30;99.90
19561;DHT22;9927;47.792;10.616;2022-12-07T06:01:26;3.10;99.90
19561;DHT22;9927;47.792;10.616;2022-12-07T06:03:53;3.10;99.90
19561;DHT22;9927;47.792;10.616;2022-12-07T06:06:20;3.00;99.90
19561;DHT22;9927;47.792;10.616;2022-12-07T06:08:48;3.00;99.90
19561;DHT22;9927;47.792;10.616;2022-12-07T06:11:15;3.00;99.90
19561;DHT22;9927;47.792;10.616;2022-12-07T06:14:01;2.90;99.90
19561;DHT22;9927;47.792;10.616;2022-12-07T06:16:28;2.90;99.90
19561;DHT22;9927;47.792;10.616;2022-12-07T06:18:56;2.80;99.90
19561;DHT22;9927;47.792;10.616;2022-12-07T06:21:23;2.70;99.90
19561;DHT22;9927;47.792;10.616;2022-12-07T06:23:52;2.70;99.90
19561;DHT22;9927;47.792;10.616;2022-12-07T06:26:20;2.70;99.90
19561;DHT22;9927;47.792;10.616;2022-12-07T06:28:47;2.60;99.90
19561;DHT22;9927;47.792;10.616;2022-12-07T06:31:14;2.60;99.90
19561;DHT22;9927;47.792;10.616;2022-12-07T06:33:42;2.60;99.90
19561;DHT22;9927;47.792;10.616;2022-12-07T06:36:09;2.60;99.90
19561;DHT22;9927;47.792;10.616;2022-12-07T06:38:37;2.60;99.90
19561;DHT22;9927;47.792;10.616;2022-12-07T06:41:04;2.60;99.90
19561;DHT22;9927;47.792;10.616;2022-12-07T06:43:32;2.70;99.90
19561;DHT22;9927;47.792;10.616;2022-12-07T06:45:59;2.70;99.90
19561;DHT22;9927;47.792;10.616;2022-12-07T06:48:27;2.90;99.90
19561;DHT22;9927;47.792;10.616;2022-12-07T06:50:54;2.90;99.90
19561;DHT22;9927;47.792;10.616;2022-12-07T06:53:22;3.00;99.90
19561;DHT22;9927;47.792;10.616;2022-12-07T06:55:49;3.10;99.90
19561;DHT22;9927;47.792;10.616;2022-12-07T06:58:17;3.10;99.90
19561;DHT22;9927;47.792;10.616;2022-12-07T07:00:45;3.10;99.90
19561;DHT22;9927;47.792;10.616;2022-12-07T07:03:12;3.10;99.90
19561;DHT22;9927;47.792;10.616;2022-12-07T07:05:39;3.10;99.90
19561;DHT22;9927;47.792;10.616;2022-12-07T07:08:07;3.10;99.90
19561;DHT22;9927;47.792;10.616;2022-12-07T07:10:50;3.00;99.90
19561;DHT22;9927;47.792;10.616;2022-12-07T07:13:17;3.10;99.90
19561;DHT22;9927;47.792;10.616;2022-12-07T07:15:45;3.20;99.90
19561;DHT22;9927;47.792;10.616;2022-12-07T07:18:12;3.20;99.90
19561;DHT22;9927;47.792;10.616;2022-12-07T07:20:40;3.10;99.90
19561;DHT22;9927;47.792;10.616;2022-12-07T07:23:07;3.10;99.90
19561;DHT22;9927;47.792;10.616;2022-12-07T07:25:35;3.20;99.90
19561;DHT22;9927;47.792;10.616;2022-12-07T07:28:02;3.30;99.90
19561;DHT22;9927;47.792;10.616;2022-12-07T07:30:30;3.40;99.90
19561;DHT22;9927;47.792;10.616;2022-12-07T07:32:59;3.20;99.90
19561;DHT22;9927;47.792;10.616;2022-12-07T07:35:28;3.10;99.90
19561;DHT22;9927;47.792;10.616;2022-12-07T07:37:56;3.10;99.90
19561;DHT22;9927;47.792;10.616;2022-12-07T07:40:24;3.20;99.90
19561;DHT22;9927;47.792;10.616;2022-12-07T07:42:53;3.10;99.90
19561;DHT22;9927;47.792;10.616;2022-12-07T07:45:22;3.30;99.90
19561;DHT22;9927;47.792;10.616;2022-12-07T07:47:49;3.50;99.90
19561;DHT22;9927;47.792;10.616;2022-12-07T07:50:17;3.50;99.90
19561;DHT22;9927;47.792;10.616;2022-12-07T07:52:45;3.40;99.90
19561;DHT22;9927;47.792;10.616;2022-12-07T07:55:12;3.50;99.90
19561;DHT22;9927;47.792;10.616;2022-12-07T07:57:40;3.40;99.90
19561;DHT22;9927;47.792;10.616;2022-12-07T08:00:10;3.50;99.90
19561;DHT22;9927;47.792;10.616;2022-12-07T08:02:38;3.50;99.90
19561;DHT22;9927;47.792;10.616;2022-12-07T08:05:06;3.40;99.90
19561;DHT22;9927;47.792;10.616;2022-12-07T08:07:33;3.30;99.90
19561;DHT22;9927;47.792;10.616;2022-12-07T08:10:01;3.10;99.90
19561;DHT22;9927;47.792;10.616;2022-12-07T08:12:28;3.00;99.90
19561;DHT22;9927;47.792;10.616;2022-12-07T08:14:56;3.20;99.90
19561;DHT22;9927;47.792;10.616;2022-12-07T08:17:23;3.40;99.90
19561;DHT22;9927;47.792;10.616;2022-12-07T08:19:50;3.60;99.90
19561;DHT22;9927;47.792;10.616;2022-12-07T08:22:17;3.60;99.90
19561;DHT22;9927;47.792;10.616;2022-12-07T08:24:45;3.80;99.90
19561;DHT22;9927;47.792;10.616;2022-12-07T08:27:13;3.80;99.90
19561;DHT22;9927;47.792;10.616;2022-12-07T08:29:40;3.60;99.90
19561;DHT22;9927;47.792;10.616;2022-12-07T08:32:07;3.60;99.90
19561;DHT22;9927;47.792;10.616;2022-12-07T08:34:36;3.40;99.90
19561;DHT22;9927;47.792;10.616;2022-12-07T08:37:04;3.30;99.90
19561;DHT22;9927;47.792;10.616;2022-12-07T08:39:31;3.40;99.90
19561;DHT22;9927;47.792;10.616;2022-12-07T08:41:59;3.50;99.90
19561;DHT22;9927;47.792;10.616;2022-12-07T08:44:26;3.30;99.90
19561;DHT22;9927;47.792;10.616;2022-12-07T08:46:57;3.30;99.90
19561;DHT22;9927;47.792;10.616;2022-12-07T08:49:36;3.20;99.90
19561;DHT22;9927;47.792;10.616;2022-12-07T08:52:06;3.30;99.90
19561;DHT22;9927;47.792;10.616;2022-12-07T08:54:35;3.70;99.90
19561;DHT22;9927;47.792;10.616;2022-12-07T08:57:04;3.80;99.90
19561;DHT22;9927;47.792;10.616;2022-12-07T08:59:34;3.90;99.90
19561;DHT22;9927;47.792;10.616;2022-12-07T09:02:04;3.90;99.90
19561;DHT22;9927;47.792;10.616;2022-12-07T09:04:31;4.00;99.90
19561;DHT22;9927;47.792;10.616;2022-12-07T09:06:59;4.00;99.90
19561;DHT22;9927;47.792;10.616;2022-12-07T09:09:26;4.00;99.90
19561;DHT22;9927;47.792;10.616;2022-12-07T09:11:53;3.90;99.90
19561;DHT22;9927;47.792;10.616;2022-12-07T09:14:21;3.90;99.90
19561;DHT22;9927;47.792;10.616;2022-12-07T09:16:48;3.90;99.90
19561;DHT22;9927;47.792;10.616;2022-12-07T09:19:15;4.00;99.90
19561;DHT22;9927;47.792;10.616;2022-12-07T09:21:42;4.20;99.90
19561;DHT22;9927;47.792;10.616;2022-12-07T09:24:12;4.00;99.90
19561;DHT22;9927;47.792;10.616;2022-12-07T09:26:39;4.00;99.90
19561;DHT22;9927;47.792;10.616;2022-12-07T09:29:07;3.80;99.90
19561;DHT22;9927;47.792;10.616;2022-12-07T09:31:36;3.70;99.90
19561;DHT22;9927;47.792;10.616;2022-12-07T09:34:04;3.60;99.90
19561;DHT22;9927;47.792;10.616;2022-12-07T09:36:33;3.70;99.90
19561;DHT22;9927;47.792;10.616;2022-12-07T09:39:00;4.00;99.90
19561;DHT22;9927;47.792;10.616;2022-12-07T09:41:30;3.90;99.90
19561;DHT22;9927;47.792;10.616;2022-12-07T09:44:06;3.80;99.90
19561;DHT22;9927;47.792;10.616;2022-12-07T09:46:40;3.80;99.90
19561;DHT22;9927;47.792;10.616;2022-12-07T09:49:20;3.80;99.90
19561;DHT22;9927;47.792;10.616;2022-12-07T09:51:58;4.00;99.90
19561;DHT22;9927;47.792;10.616;2022-12-07T09:54:26;4.30;99.90
19561;DHT22;9927;47.792;10.616;2022-12-07T09:56:53;4.30;99.90
19561;DHT22;9927;47.792;10.616;2022-12-07T09:59:20;4.40;99.90
19561;DHT22;9927;47.792;10.616;2022-12-07T10:01:49;4.50;99.90
19561;DHT22;9927;47.792;10.616;2022-12-07T10:04:23;4.40;99.90
19561;DHT22;9927;47.792;10.616;2022-12-07T10:06:51;4.50;99.90
19561;DHT22;9927;47.792;10.616;2022-12-07T10:09:21;4.50;99.90
19561;DHT22;9927;47.792;10.616;2022-12-07T10:12:09;4.50;99.90
19561;DHT22;9927;47.792;10.616;2022-12-07T10:14:53;4.60;99.90
19561;DHT22;9927;47.792;10.616;2022-12-07T10:17:39;4.70;99.90
19561;DHT22;9927;47.792;10.616;2022-12-07T10:20:25;4.60;99.90
19561;DHT22;9927;47.792;10.616;2022-12-07T10:23:05;4.80;99.90
19561;DHT22;9927;47.792;10.616;2022-12-07T10:25:35;4.70;99.90
19561;DHT22;9927;47.792;10.616;2022-12-07T10:28:12;4.70;99.90
19561;DHT22;9927;47.792;10.616;2022-12-07T10:31:16;4.90;99.90
19561;DHT22;9927;47.792;10.616;2022-12-07T10:33:58;5.00;99.90
19561;DHT22;9927;47.792;10.616;2022-12-07T10:41:31;5.10;99.90
19561;DHT22;9927;47.792;10.616;2022-12-07T10:43:58;5.10;99.90
19561;DHT22;9927;47.792;10.616;2022-12-07T11:04:37;5.10;99.90
19561;DHT22;9927;47.792;10.616;2022-12-07T11:07:20;5.10;99.90
19561;DHT22;9927;47.792;10.616;2022-12-07T11:18:51;5.00;99.90
19561;DHT22;9927;47.792;10.616;2022-12-07T11:21:21;4.80;99.90
19561;DHT22;9927;47.792;10.616;2022-12-07T11:24:16;5.00;99.90
19561;DHT22;9927;47.792;10.616;2022-12-07T11:27:06;5.10;99.90
19561;DHT22;9927;47.792;10.616;2022-12-07T11:37:47;5.20;99.90
19561;DHT22;9927;47.792;10.616;2022-12-07T11:40:33;5.00;99.90
19561;DHT22;9927;47.792;10.616;2022-12-07T11:43:20;5.10;99.90
19561;DHT22;9927;47.792;10.616;2022-12-07T11:50:58;5.20;99.90
19561;DHT22;9927;47.792;10.616;2022-12-07T11:53:31;5.10;99.90
19561;DHT22;9927;47.792;10.616;2022-12-07T11:56:16;5.20;99.90
19561;DHT22;9927;47.792;10.616;2022-12-07T12:03:56;5.10;99.90
19561;DHT22;9927;47.792;10.616;2022-12-07T12:06:25;5.10;99.90
19561;DHT22;9927;47.792;10.616;2022-12-07T12:08:57;5.20;99.90
19561;DHT22;9927;47.792;10.616;2022-12-07T12:16:17;5.20;99.90
19561;DHT22;9927;47.792;10.616;2022-12-07T12:18:32;5.00;99.90
19561;DHT22;9927;47.792;10.616;2022-12-07T12:21:06;5.00;99.90
19561;DHT22;9927;47.792;10.616;2022-12-07T12:26:22;5.20;99.90
19561;DHT22;9927;47.792;10.616;2022-12-07T12:33:56;4.90;99.90
19561;DHT22;9927;47.792;10.616;2022-12-07T12:36:46;5.00;99.90
19561;DHT22;9927;47.792;10.616;2022-12-07T12:39:18;4.90;99.90
19561;DHT22;9927;47.792;10.616;2022-12-07T12:59:32;5.20;99.90
19561;DHT22;9927;47.792;10.616;2022-12-07T13:08:24;4.90;99.90
19561;DHT22;9927;47.792;10.616;2022-12-07T13:15:41;5.10;99.90
19561;DHT22;9927;47.792;10.616;2022-12-07T13:18:23;5.10;99.90
19561;DHT22;9927;47.792;10.616;2022-12-07T13:26:20;5.30;99.90
19561;DHT22;9927;47.792;10.616;2022-12-07T13:28:51;5.40;99.90
19561;DHT22;9927;47.792;10.616;2022-12-07T13:34:02;5.40;99.90
19561;DHT22;9927;47.792;10.616;2022-12-07T13:36:33;5.40;99.90
19561;DHT22;9927;47.792;10.616;2022-12-07T13:39:19;5.10;99.90
19561;DHT22;9927;47.792;10.616;2022-12-07T13:41:54;5.30;99.90
19561;DHT22;9927;47.792;10.616;2022-12-07T13:44:23;5.50;99.90
19561;DHT22;9927;47.792;10.616;2022-12-07T13:47:12;5.60;99.90
19561;DHT22;9927;47.792;10.616;2022-12-07T13:49:52;5.60;99.90
19561;DHT22;9927;47.792;10.616;2022-12-07T13:52:25;5.30;99.90
19561;DHT22;9927;47.792;10.616;2022-12-07T13:57:35;5.20;99.90
19561;DHT22;9927;47.792;10.616;2022-12-07T14:00:06;5.10;99.90
19561;DHT22;9927;47.792;10.616;2022-12-07T14:05:32;4.90;99.90
19561;DHT22;9927;47.792;10.616;2022-12-07T14:08:06;4.60;99.90
19561;DHT22;9927;47.792;10.616;2022-12-07T14:16:30;5.10;99.90
19561;DHT22;9927;47.792;10.616;2022-12-07T14:19:00;5.10;99.90
19561;DHT22;9927;47.792;10.616;2022-12-07T14:21:30;5.20;99.90
19561;DHT22;9927;47.792;10.616;2022-12-07T14:26:39;5.20;99.90
19561;DHT22;9927;47.792;10.616;2022-12-07T14:31:54;4.90;99.90
19561;DHT22;9927;47.792;10.616;2022-12-07T14:34:22;4.80;99.90
19561;DHT22;9927;47.792;10.616;2022-12-07T14:36:50;4.90;99.90
19561;DHT22;9927;47.792;10.616;2022-12-07T14:39:18;5.00;99.90
19561;DHT22;9927;47.792;10.616;2022-12-07T14:41:45;5.00;99.90
19561;DHT22;9927;47.792;10.616;2022-12-07T14:44:21;4.90;99.90
19561;DHT22;9927;47.792;10.616;2022-12-07T14:46:52;4.90;99.90
19561;DHT22;9927;47.792;10.616;2022-12-07T14:49:40;4.90;99.90
19561;DHT22;9927;47.792;10.616;2022-12-07T14:52:19;5.00;99.90
19561;DHT22;9927;47.792;10.616;2022-12-07T14:55:14;5.10;99.90
19561;DHT22;9927;47.792;10.616;2022-12-07T14:57:42;5.00;99.90
19561;DHT22;9927;47.792;10.616;2022-12-07T15:00:13;4.90;99.90
19561;DHT22;9927;47.792;10.616;2022-12-07T15:02:41;4.90;99.90
19561;DHT22;9927;47.792;10.616;2022-12-07T15:05:08;5.00;99.90
19561;DHT22;9927;47.792;10.616;2022-12-07T15:07:41;5.00;99.90
19561;DHT22;9927;47.792;10.616;2022-12-07T15:12:48;5.00;99.90
19561;DHT22;9927;47.792;10.616;2022-12-07T15:15:15;4.90;99.90
19561;DHT22;9927;47.792;10.616;2022-12-07T15:17:43;4.90;99.90
19561;DHT22;9927;47.792;10.616;2022-12-07T15:20:16;4.90;99.90
19561;DHT22;9927;47.792;10.616;2022-12-07T15:22:44;4.90;99.90
19561;DHT22;9927;47.792;10.616;2022-12-07T15:25:14;5.00;99.90
19561;DHT22;9927;47.792;10.616;2022-12-07T15:27:41;5.00;99.90
19561;DHT22;9927;47.792;10.616;2022-12-07T15:30:09;4.90;99.90
19561;DHT22;9927;47.792;10.616;2022-12-07T15:32:36;4.70;99.90
19561;DHT22;9927;47.792;10.616;2022-12-07T15:35:04;4.50;99.90
19561;DHT22;9927;47.792;10.616;2022-12-07T15:37:32;4.50;99.90
19561;DHT22;9927;47.792;10.616;2022-12-07T15:39:59;4.40;99.90
19561;DHT22;9927;47.792;10.616;2022-12-07T15:42:34;4.50;99.90
19561;DHT22;9927;47.792;10.616;2022-12-07T15:45:03;4.60;99.90
19561;DHT22;9927;47.792;10.616;2022-12-07T15:50:23;4.50;99.90
19561;DHT22;9927;47.792;10.616;2022-12-07T15:52:50;4.60;99.90
19561;DHT22;9927;47.792;10.616;2022-12-07T15:55:18;4.60;99.90
19561;DHT22;9927;47.792;10.616;2022-12-07T15:57:45;4.50;99.90
19561;DHT22;9927;47.792;10.616;2022-12-07T16:00:13;4.50;99.90
19561;DHT22;9927;47.792;10.616;2022-12-07T16:02:40;4.50;99.90
19561;DHT22;9927;47.792;10.616;2022-12-07T16:05:08;4.50;99.90
19561;DHT22;9927;47.792;10.616;2022-12-07T16:07:35;4.50;99.90
19561;DHT22;9927;47.792;10.616;2022-12-07T16:10:02;4.60;99.90
19561;DHT22;9927;47.792;10.616;2022-12-07T16:12:30;4.50;99.90
19561;DHT22;9927;47.792;10.616;2022-12-07T16:14:57;4.30;99.90
19561;DHT22;9927;47.792;10.616;2022-12-07T16:17:24;4.30;99.90
19561;DHT22;9927;47.792;10.616;2022-12-07T16:19:52;4.30;99.90
19561;DHT22;9927;47.792;10.616;2022-12-07T16:22:20;4.50;99.90
19561;DHT22;9927;47.792;10.616;2022-12-07T16:24:47;4.40;99.90
19561;DHT22;9927;47.792;10.616;2022-12-07T16:27:15;4.50;99.90
19561;DHT22;9927;47.792;10.616;2022-12-07T16:29:43;4.30;99.90
19561;DHT22;9927;47.792;10.616;2022-12-07T16:32:10;4.20;99.90
19561;DHT22;9927;47.792;10.616;2022-12-07T16:34:38;4.10;99.90
19561;DHT22;9927;47.792;10.616;2022-12-07T16:37:06;4.10;99.90
19561;DHT22;9927;47.792;10.616;2022-12-07T16:39:33;4.10;99.90
19561;DHT22;9927;47.792;10.616;2022-12-07T16:42:01;4.20;99.90
19561;DHT22;9927;47.792;10.616;2022-12-07T16:44:29;4.40;99.90
19561;DHT22;9927;47.792;10.616;2022-12-07T16:46:58;4.40;99.90
19561;DHT22;9927;47.792;10.616;2022-12-07T16:49:27;4.30;99.90
19561;DHT22;9927;47.792;10.616;2022-12-07T16:51:54;4.20;99.90
19561;DHT22;9927;47.792;10.616;2022-12-07T16:54:41;4.20;99.90
19561;DHT22;9927;47.792;10.616;2022-12-07T16:57:10;4.10;99.90
19561;DHT22;9927;47.792;10.616;2022-12-07T16:59:44;3.80;99.90
19561;DHT22;9927;47.792;10.616;2022-12-07T17:02:12;3.60;99.90
19561;DHT22;9927;47.792;10.616;2022-12-07T17:04:39;3.70;99.90
19561;DHT22;9927;47.792;10.616;2022-12-07T17:07:09;3.60;99.90
19561;DHT22;9927;47.792;10.616;2022-12-07T17:09:37;3.70;99.90
19561;DHT22;9927;47.792;10.616;2022-12-07T17:12:04;3.80;99.90
19561;DHT22;9927;47.792;10.616;2022-12-07T17:14:33;3.90;99.90
19561;DHT22;9927;47.792;10.616;2022-12-07T17:17:18;4.10;99.90
19561;DHT22;9927;47.792;10.616;2022-12-07T17:19:46;4.20;99.90
19561;DHT22;9927;47.792;10.616;2022-12-07T17:22:13;4.10;99.90
19561;DHT22;9927;47.792;10.616;2022-12-07T17:24:40;3.90;99.90
19561;DHT22;9927;47.792;10.616;2022-12-07T17:27:08;3.90;99.90
19561;DHT22;9927;47.792;10.616;2022-12-07T17:29:35;4.00;99.90
19561;DHT22;9927;47.792;10.616;2022-12-07T17:32:02;3.80;99.90
19561;DHT22;9927;47.792;10.616;2022-12-07T17:34:30;3.80;99.90
19561;DHT22;9927;47.792;10.616;2022-12-07T17:36:57;3.70;99.90
19561;DHT22;9927;47.792;10.616;2022-12-07T17:39:24;3.80;99.90
19561;DHT22;9927;47.792;10.616;2022-12-07T17:41:52;3.70;99.90
19561;DHT22;9927;47.792;10.616;2022-12-07T17:44:38;3.90;99.90
19561;DHT22;9927;47.792;10.616;2022-12-07T17:47:05;3.90;99.90
19561;DHT22;9927;47.792;10.616;2022-12-07T17:49:34;4.00;99.90
19561;DHT22;9927;47.792;10.616;2022-12-07T17:52:01;4.00;99.90
19561;DHT22;9927;47.792;10.616;2022-12-07T17:54:47;4.00;99.90
19561;DHT22;9927;47.792;10.616;2022-12-07T17:57:14;3.90;99.90
19561;DHT22;9927;47.792;10.616;2022-12-07T17:59:41;3.70;99.90
19561;DHT22;9927;47.792;10.616;2022-12-07T18:02:09;3.80;99.90
19561;DHT22;9927;47.792;10.616;2022-12-07T18:04:37;3.80;99.90
19561;DHT22;9927;47.792;10.616;2022-12-07T18:07:04;3.90;99.90
19561;DHT22;9927;47.792;10.616;2022-12-07T18:09:32;4.00;99.90
19561;DHT22;9927;47.792;10.616;2022-12-07T18:12:00;4.00;99.90
19561;DHT22;9927;47.792;10.616;2022-12-07T18:14:28;4.10;99.90
19561;DHT22;9927;47.792;10.616;2022-12-07T18:16:55;4.10;99.90
19561;DHT22;9927;47.792;10.616;2022-12-07T18:19:22;4.10;99.90
19561;DHT22;9927;47.792;10.616;2022-12-07T18:21:50;4.10;99.90
19561;DHT22;9927;47.792;10.616;2022-12-07T18:24:17;4.00;99.90
19561;DHT22;9927;47.792;10.616;2022-12-07T18:26:45;4.00;99.90
19561;DHT22;9927;47.792;10.616;2022-12-07T18:29:15;3.90;99.90
19561;DHT22;9927;47.792;10.616;2022-12-07T18:31:44;3.90;99.90
19561;DHT22;9927;47.792;10.616;2022-12-07T18:34:15;4.00;99.90
19561;DHT22;9927;47.792;10.616;2022-12-07T18:36:45;4.00;99.90
19561;DHT22;9927;47.792;10.616;2022-12-07T18:39:14;4.00;99.90
19561;DHT22;9927;47.792;10.616;2022-12-07T18:41:42;4.00;99.90
19561;DHT22;9927;47.792;10.616;2022-12-07T18:44:10;4.00;99.90
19561;DHT22;9927;47.792;10.616;2022-12-07T18:46:39;4.00;99.90
19561;DHT22;9927;47.792;10.616;2022-12-07T18:49:11;3.80;99.90
19561;DHT22;9927;47.792;10.616;2022-12-07T18:51:38;3.80;99.90
19561;DHT22;9927;47.792;10.616;2022-12-07T18:54:05;3.80;99.90
19561;DHT22;9927;47.792;10.616;2022-12-07T18:56:33;3.80;99.90
19561;DHT22;9927;47.792;10.616;2022-12-07T18:59:02;3.90;99.90
19561;DHT22;9927;47.792;10.616;2022-12-07T19:01:51;3.90;99.90
19561;DHT22;9927;47.792;10.616;2022-12-07T19:04:19;3.80;99.90
19561;DHT22;9927;47.792;10.616;2022-12-07T19:06:47;3.80;99.90
19561;DHT22;9927;47.792;10.616;2022-12-07T19:09:16;3.60;99.90
19561;DHT22;9927;47.792;10.616;2022-12-07T19:11:44;3.50;99.90
19561;DHT22;9927;47.792;10.616;2022-12-07T19:14:26;3.30;99.90
19561;DHT22;9927;47.792;10.616;2022-12-07T19:16:56;3.30;99.90
19561;DHT22;9927;47.792;10.616;2022-12-07T19:19:30;3.30;99.90
19561;DHT22;9927;47.792;10.616;2022-12-07T19:21:57;3.40;99.90
19561;DHT22;9927;47.792;10.616;2022-12-07T19:24:25;3.50;99.90
19561;DHT22;9927;47.792;10.616;2022-12-07T19:26:52;3.40;99.90
19561;DHT22;9927;47.792;10.616;2022-12-07T19:29:20;3.40;99.90
19561;DHT22;9927;47.792;10.616;2022-12-07T19:31:47;3.50;99.90
19561;DHT22;9927;47.792;10.616;2022-12-07T19:34:15;3.30;99.90
19561;DHT22;9927;47.792;10.616;2022-12-07T19:36:44;3.40;99.90
19561;DHT22;9927;47.792;10.616;2022-12-07T19:39:12;3.40;99.90
19561;DHT22;9927;47.792;10.616;2022-12-07T19:41:42;3.50;99.90
19561;DHT22;9927;47.792;10.616;2022-12-07T19:44:15;3.50;99.90
19561;DHT22;9927;47.792;10.616;2022-12-07T19:46:45;3.50;99.90
19561;DHT22;9927;47.792;10.616;2022-12-07T19:49:13;3.50;99.90
19561;DHT22;9927;47.792;10.616;2022-12-07T19:51:46;3.50;99.90
19561;DHT22;9927;47.792;10.616;2022-12-07T19:54:14;3.50;99.90
19561;DHT22;9927;47.792;10.616;2022-12-07T19:56:43;3.50;99.90
19561;DHT22;9927;47.792;10.616;2022-12-07T19:59:14;3.60;99.90
19561;DHT22;9927;47.792;10.616;2022-12-07T20:01:42;3.60;99.90
19561;DHT22;9927;47.792;10.616;2022-12-07T20:04:18;3.50;99.90
19561;DHT22;9927;47.792;10.616;2022-12-07T20:06:53;3.50;99.90
19561;DHT22;9927;47.792;10.616;2022-12-07T20:09:22;3.40;99.90
19561;DHT22;9927;47.792;10.616;2022-12-07T20:11:49;3.30;99.90
19561;DHT22;9927;47.792;10.616;2022-12-07T20:14:36;3.50;99.90
19561;DHT22;9927;47.792;10.616;2022-12-07T20:17:04;3.50;99.90
19561;DHT22;9927;47.792;10.616;2022-12-07T20:19:31;3.50;99.90
19561;DHT22;9927;47.792;10.616;2022-12-07T20:21:58;3.60;99.90
19561;DHT22;9927;47.792;10.616;2022-12-07T20:24:26;3.50;99.90
19561;DHT22;9927;47.792;10.616;2022-12-07T20:26:53;3.50;99.90
19561;DHT22;9927;47.792;10.616;2022-12-07T20:29:23;3.60;99.90
19561;DHT22;9927;47.792;10.616;2022-12-07T20:31:52;3.60;99.90
19561;DHT22;9927;47.792;10.616;2022-12-07T20:34:19;3.60;99.90
19561;DHT22;9927;47.792;10.616;2022-12-07T20:36:47;3.60;99.90
19561;DHT22;9927;47.792;10.616;2022-12-07T20:39:15;3.40;99.90
19561;DHT22;9927;47.792;10.616;2022-12-07T20:41:42;3.40;99.90
19561;DHT22;9927;47.792;10.616;2022-12-07T20:44:28;3.40;99.90
19561;DHT22;9927;47.792;10.616;2022-12-07T20:46:55;3.30;99.90
19561;DHT22;9927;47.792;10.616;2022-12-07T20:49:22;3.30;99.90
19561;DHT22;9927;47.792;10.616;2022-12-07T20:51:50;3.10;99.90
19561;DHT22;9927;47.792;10.616;2022-12-07T20:54:17;3.30;99.90
19561;DHT22;9927;47.792;10.616;2022-12-07T20:56:44;3.30;99.90
19561;DHT22;9927;47.792;10.616;2022-12-07T20:59:14;3.30;99.90
19561;DHT22;9927;47.792;10.616;2022-12-07T21:01:42;3.30;99.90
19561;DHT22;9927;47.792;10.616;2022-12-07T21:04:11;3.20;99.90
19561;DHT22;9927;47.792;10.616;2022-12-07T21:06:39;3.30;99.90
19561;DHT22;9927;47.792;10.616;2022-12-07T21:09:08;3.40;99.90
19561;DHT22;9927;47.792;10.616;2022-12-07T21:11:36;3.60;99.90
19561;DHT22;9927;47.792;10.616;2022-12-07T21:14:05;3.50;99.90
19561;DHT22;9927;47.792;10.616;2022-12-07T21:16:33;3.50;99.90
19561;DHT22;9927;47.792;10.616;2022-12-07T21:19:01;3.50;99.90
19561;DHT22;9927;47.792;10.616;2022-12-07T21:21:30;3.40;99.90
19561;DHT22;9927;47.792;10.616;2022-12-07T21:23:57;3.30;99.90
19561;DHT22;9927;47.792;10.616;2022-12-07T21:26:30;3.30;99.90
19561;DHT22;9927;47.792;10.616;2022-12-07T21:29:03;3.50;99.90
19561;DHT22;9927;47.792;10.616;2022-12-07T21:31:31;3.50;99.90
19561;DHT22;9927;47.792;10.616;2022-12-07T21:34:01;3.50;99.90
19561;DHT22;9927;47.792;10.616;2022-12-07T21:36:29;3.50;99.90
19561;DHT22;9927;47.792;10.616;2022-12-07T21:38:57;3.40;99.90
19561;DHT22;9927;47.792;10.616;2022-12-07T21:41:29;3.50;99.90
19561;DHT22;9927;47.792;10.616;2022-12-07T21:44:01;3.50;99.90
19561;DHT22;9927;47.792;10.616;2022-12-07T21:46:31;3.50;99.90
19561;DHT22;9927;47.792;10.616;2022-12-07T21:49:06;3.50;99.90
19561;DHT22;9927;47.792;10.616;2022-12-07T21:51:34;3.50;99.90
19561;DHT22;9927;47.792;10.616;2022-12-07T21:54:03;3.20;99.90
19561;DHT22;9927;47.792;10.616;2022-12-07T21:56:33;3.10;99.90
19561;DHT22;9927;47.792;10.616;2022-12-07T21:59:04;3.20;99.90
